Time;durP1;ratioP1;P1;durP2;ratioP2;P2;SDS_P1;SDS_P2;PMS_P1;PMS_P2;Temp;Humidity;BMP_temperature;BMP_pressure;BME280_temperature;BME280_humidity;BME280_pressure;Samples;Min_cycle;Max_cycle;Signal;HPM_P1;HPM_P2
2024/02/20 00:01:40;;;;;;;311.65;292.48;;;12.00;99.90;;;;;;5028205;28;20033;-77
2024/02/20 00:04:09;;;;;;;351.20;329.20;;;12.00;99.90;;;;;;5027350;28;20033;-78
2024/02/20 00:06:36;;;;;;;362.80;339.70;;;11.90;99.90;;;;;;5030136;28;20041;-78
2024/02/20 00:09:02;;;;;;;349.83;327.95;;;12.00;99.90;;;;;;5026726;28;20421;-78
2024/02/20 00:11:28;;;;;;;329.63;309.52;;;12.00;99.90;;;;;;5023654;28;20053;-78
2024/02/20 00:13:55;;;;;;;319.98;300.48;;;11.90;99.90;;;;;;5030570;28;20038;-78
2024/02/20 00:16:22;;;;;;;312.75;293.27;;;12.00;99.90;;;;;;5030327;28;20410;-78
2024/02/20 00:18:48;;;;;;;320.80;300.98;;;12.00;99.90;;;;;;5027345;28;20037;-78
2024/02/20 00:21:15;;;;;;;254.38;238.88;;;12.00;99.90;;;;;;5030810;28;20037;-78
2024/02/20 00:23:41;;;;;;;278.13;261.42;;;12.00;99.90;;;;;;5029552;28;20040;-78
2024/02/20 00:26:07;;;;;;;274.30;257.95;;;11.90;99.90;;;;;;5034807;28;20041;-78
2024/02/20 00:28:40;;;;;;;273.35;256.67;;;11.80;99.90;;;;;;5034223;28;20117;-78
2024/02/20 00:31:06;;;;;;;237.30;222.57;;;11.80;99.90;;;;;;5030268;28;20041;-77
2024/02/20 00:33:34;;;;;;;241.73;227.30;;;11.80;99.90;;;;;;5034130;28;20025;-77
2024/02/20 00:36:01;;;;;;;257.00;240.60;;;11.70;99.90;;;;;;5034524;28;20443;-78
2024/02/20 00:38:27;;;;;;;228.07;213.50;;;11.80;99.90;;;;;;5034358;28;20033;-78
2024/02/20 00:40:55;;;;;;;217.27;202.48;;;11.80;99.90;;;;;;5033004;28;20466;-77
2024/02/20 00:43:21;;;;;;;218.60;204.55;;;11.70;99.90;;;;;;5034019;28;20061;-78
2024/02/20 00:45:48;;;;;;;219.63;205.70;;;11.70;99.90;;;;;;5033500;28;20482;-78
2024/02/20 00:48:14;;;;;;;221.43;206.95;;;11.70;99.90;;;;;;5033619;28;20041;-78
2024/02/20 00:50:41;;;;;;;213.90;200.38;;;11.70;99.90;;;;;;5034349;28;20045;-78
2024/02/20 00:53:08;;;;;;;214.68;201.02;;;11.70;99.90;;;;;;5033836;28;20049;-78
2024/02/20 00:55:34;;;;;;;216.77;202.55;;;11.70;99.90;;;;;;5031189;28;20053;-78
2024/02/20 00:58:00;;;;;;;211.07;197.90;;;11.70;99.90;;;;;;5033863;28;20048;-77
2024/02/20 01:00:27;;;;;;;204.65;191.90;;;11.50;99.90;;;;;;5032623;28;20482;-78
2024/02/20 01:02:53;;;;;;;207.60;193.55;;;11.60;99.90;;;;;;5032905;28;20056;-77
2024/02/20 01:05:19;;;;;;;183.23;171.68;;;11.60;99.90;;;;;;5020869;28;20037;-77
2024/02/20 01:07:45;;;;;;;177.65;165.95;;;11.60;99.90;;;;;;5032322;28;20037;-77
2024/02/20 01:10:12;;;;;;;177.38;165.43;;;11.40;99.90;;;;;;5033436;28;20046;-77
2024/02/20 01:12:38;;;;;;;175.80;164.57;;;11.40;99.90;;;;;;5015972;28;20041;-77
2024/02/20 01:15:06;;;;;;;164.45;153.25;;;11.40;99.90;;;;;;5031249;28;20049;-77
2024/02/20 01:17:32;;;;;;;166.68;156.32;;;11.40;99.90;;;;;;5033607;28;20025;-77
2024/02/20 01:19:58;;;;;;;160.55;149.93;;;11.40;99.90;;;;;;5032728;28;20061;-78
2024/02/20 01:22:25;;;;;;;162.10;150.93;;;11.40;99.90;;;;;;5030934;28;20040;-78
2024/02/20 01:24:51;;;;;;;192.93;180.07;;;11.40;99.90;;;;;;5033022;28;20052;-76
2024/02/20 01:27:17;;;;;;;184.85;172.57;;;11.50;99.90;;;;;;5031313;28;20044;-78
2024/02/20 01:29:44;;;;;;;177.20;165.32;;;11.40;99.90;;;;;;5031315;28;20037;-78
2024/02/20 01:32:10;;;;;;;196.50;183.88;;;11.40;99.90;;;;;;5029956;28;20038;-77
2024/02/20 01:34:36;;;;;;;185.82;173.15;;;11.40;99.90;;;;;;5032163;28;20386;-77
2024/02/20 01:37:02;;;;;;;185.32;173.07;;;11.30;99.90;;;;;;5031365;28;20034;-77
2024/02/20 01:39:28;;;;;;;179.63;167.40;;;11.30;99.90;;;;;;5033623;28;20040;-77
2024/02/20 01:41:57;;;;;;;210.23;196.48;;;11.30;99.90;;;;;;5030891;28;20041;-77
2024/02/20 01:44:31;;;;;;;154.98;144.90;;;11.30;99.90;;;;;;5033164;28;20076;-77
2024/02/20 01:46:57;;;;;;;175.35;163.65;;;11.30;99.90;;;;;;5030906;28;20033;-77
2024/02/20 01:49:24;;;;;;;163.50;152.60;;;11.30;99.90;;;;;;5032086;28;20033;-78
2024/02/20 01:51:51;;;;;;;165.05;154.25;;;11.30;99.90;;;;;;5032904;28;20052;-77
2024/02/20 01:54:17;;;;;;;146.13;136.85;;;11.30;99.90;;;;;;5030395;28;20289;-77
2024/02/20 01:56:43;;;;;;;161.10;149.80;;;11.20;99.90;;;;;;5030238;28;20041;-78
2024/02/20 01:59:09;;;;;;;163.13;153.35;;;11.20;99.90;;;;;;5030898;28;20504;-78
2024/02/20 02:01:35;;;;;;;217.75;203.40;;;11.20;99.90;;;;;;5029973;28;20041;-77
2024/02/20 02:04:02;;;;;;;208.38;195.80;;;11.10;99.90;;;;;;5033750;28;20038;-77
2024/02/20 02:06:28;;;;;;;200.75;188.00;;;11.10;99.90;;;;;;5032582;28;20029;-77
2024/02/20 02:08:54;;;;;;;155.90;145.55;;;11.10;99.90;;;;;;5052800;28;20037;-77
2024/02/20 02:11:21;;;;;;;125.10;116.07;;;11.10;99.90;;;;;;5026101;28;20041;-77
2024/02/20 02:13:47;;;;;;;191.27;179.18;;;11.10;99.90;;;;;;5030383;28;20052;-77
2024/02/20 02:16:13;;;;;;;142.25;132.73;;;11.00;99.90;;;;;;5031687;28;20041;-77
2024/02/20 02:18:39;;;;;;;147.23;136.77;;;11.00;99.90;;;;;;5032011;28;20029;-78
2024/02/20 02:21:05;;;;;;;182.02;169.98;;;10.90;99.90;;;;;;5032023;28;20033;-77
2024/02/20 02:23:31;;;;;;;145.77;136.50;;;10.90;99.90;;;;;;5027188;28;20041;-77
2024/02/20 02:25:57;;;;;;;191.65;178.52;;;11.00;99.90;;;;;;5026585;28;20040;-77
2024/02/20 02:28:23;;;;;;;182.02;170.13;;;10.90;99.90;;;;;;5053091;28;20050;-77
2024/02/20 02:30:49;;;;;;;193.27;180.30;;;11.00;99.90;;;;;;5031061;28;20120;-77
2024/02/20 02:33:15;;;;;;;165.23;153.70;;;11.00;99.90;;;;;;5030713;28;20037;-77
2024/02/20 02:35:41;;;;;;;148.60;139.07;;;11.00;99.90;;;;;;5031721;28;20033;-77
2024/02/20 02:38:07;;;;;;;176.32;164.98;;;10.90;99.90;;;;;;5031688;28;20044;-77
2024/02/20 02:40:34;;;;;;;160.43;149.95;;;11.00;99.90;;;;;;5031656;28;20033;-77
2024/02/20 02:43:00;;;;;;;137.15;127.75;;;10.90;99.90;;;;;;5028665;28;20045;-77
2024/02/20 02:45:31;;;;;;;188.43;176.35;;;10.90;99.90;;;;;;5030710;28;20042;-77
2024/02/20 02:47:57;;;;;;;186.00;173.85;;;10.90;99.90;;;;;;5031211;28;20099;-77
2024/02/20 02:50:23;;;;;;;151.82;142.32;;;10.90;99.90;;;;;;5030757;28;20049;-77
2024/02/20 02:52:49;;;;;;;198.88;186.35;;;10.90;99.90;;;;;;5029924;28;20044;-77
2024/02/20 02:55:16;;;;;;;196.13;183.85;;;11.00;99.90;;;;;;5025068;28;20052;-77
2024/02/20 02:57:42;;;;;;;186.18;173.52;;;10.90;99.90;;;;;;5022611;28;20414;-77
2024/02/20 03:00:11;;;;;;;148.38;138.63;;;11.00;99.90;;;;;;5023551;28;20033;-77
2024/02/20 03:02:38;;;;;;;181.80;170.07;;;11.00;99.90;;;;;;5021540;28;20045;-77
2024/02/20 03:05:05;;;;;;;182.38;170.60;;;11.00;99.90;;;;;;5023791;28;20025;-77
2024/02/20 03:07:32;;;;;;;186.32;174.10;;;11.00;99.90;;;;;;5049976;28;20042;-77
2024/02/20 03:09:59;;;;;;;172.50;161.13;;;11.00;99.90;;;;;;5022993;28;20041;-77
2024/02/20 03:12:25;;;;;;;169.07;157.68;;;11.10;99.90;;;;;;5052671;28;20071;-77
2024/02/20 03:14:53;;;;;;;171.35;160.57;;;11.00;99.90;;;;;;5028434;28;20030;-77
2024/02/20 03:17:19;;;;;;;162.55;152.27;;;11.10;99.90;;;;;;5019912;28;20052;-77
2024/02/20 03:19:45;;;;;;;165.00;154.10;;;11.10;99.90;;;;;;5019808;28;20402;-77
2024/02/20 03:22:11;;;;;;;155.95;145.63;;;11.00;99.90;;;;;;5051336;28;20025;-76
2024/02/20 03:24:38;;;;;;;175.40;164.30;;;10.90;99.90;;;;;;5023798;28;20402;-77
2024/02/20 03:27:06;;;;;;;136.88;127.78;;;10.90;99.90;;;;;;5018670;28;20395;-77
2024/02/20 03:29:32;;;;;;;158.85;148.38;;;10.90;99.90;;;;;;5021119;28;20041;-77
2024/02/20 03:31:59;;;;;;;144.63;135.30;;;11.00;99.90;;;;;;5021040;28;20053;-77
2024/02/20 03:34:25;;;;;;;175.30;163.35;;;11.00;99.90;;;;;;5020933;28;20494;-77
2024/02/20 03:36:51;;;;;;;178.82;166.82;;;11.00;99.90;;;;;;5020579;28;20041;-77
2024/02/20 03:39:17;;;;;;;186.18;174.60;;;11.00;99.90;;;;;;5022908;28;20872;-77
2024/02/20 03:41:43;;;;;;;180.10;168.60;;;11.10;99.90;;;;;;5021082;28;20406;-77
2024/02/20 03:44:10;;;;;;;181.88;170.07;;;11.00;99.90;;;;;;5027972;28;20041;-77
2024/02/20 03:46:36;;;;;;;199.52;186.95;;;11.10;99.90;;;;;;5022176;28;20478;-77
2024/02/20 03:49:02;;;;;;;198.90;186.50;;;11.10;99.90;;;;;;5022057;28;20041;-77
2024/02/20 03:51:28;;;;;;;265.50;249.23;;;11.10;99.90;;;;;;5021759;28;20418;-77
2024/02/20 03:53:54;;;;;;;241.32;225.90;;;11.10;99.90;;;;;;5021382;28;20037;-77
2024/02/20 03:56:21;;;;;;;270.70;252.85;;;11.00;99.90;;;;;;5025231;28;20095;-77
2024/02/20 03:58:47;;;;;;;281.58;263.60;;;10.90;99.90;;;;;;5024412;28;20109;-77
2024/02/20 04:01:13;;;;;;;255.05;238.80;;;10.90;99.90;;;;;;5024654;28;20410;-77
2024/02/20 04:03:40;;;;;;;240.07;224.45;;;10.90;99.90;;;;;;5025926;28;20031;-77
2024/02/20 04:06:08;;;;;;;262.80;246.57;;;10.90;99.90;;;;;;5025304;28;20029;-77
2024/02/20 04:08:37;;;;;;;262.92;245.95;;;10.80;99.90;;;;;;5025375;28;21829;-77
2024/02/20 04:11:03;;;;;;;294.77;276.90;;;10.70;99.90;;;;;;5054260;28;20045;-77
2024/02/20 04:13:29;;;;;;;338.77;316.38;;;10.70;99.90;;;;;;5026167;28;20041;-77
2024/02/20 04:15:55;;;;;;;324.13;303.58;;;10.70;99.90;;;;;;5031659;28;20040;-77
2024/02/20 04:18:21;;;;;;;313.45;293.98;;;10.60;99.90;;;;;;5027356;28;20034;-77
2024/02/20 04:20:47;;;;;;;348.30;325.85;;;10.70;99.90;;;;;;5033260;28;20037;-77
2024/02/20 04:23:13;;;;;;;343.23;321.30;;;10.60;99.90;;;;;;5029829;28;20032;-77
2024/02/20 04:25:40;;;;;;;298.23;279.02;;;10.60;99.90;;;;;;5034243;28;20371;-77
2024/02/20 04:28:06;;;;;;;292.90;274.00;;;10.50;99.90;;;;;;5034081;28;20026;-77
2024/02/20 04:30:34;;;;;;;304.60;284.02;;;10.50;99.90;;;;;;5033774;28;20041;-77
2024/02/20 04:33:00;;;;;;;306.10;284.15;;;10.50;99.90;;;;;;5030527;28;20034;-77
2024/02/20 04:35:26;;;;;;;315.92;292.02;;;10.40;99.90;;;;;;5033073;28;20498;-77
2024/02/20 04:37:52;;;;;;;224.68;209.00;;;10.40;99.90;;;;;;5033431;28;20421;-77
2024/02/20 04:40:20;;;;;;;244.77;223.65;;;10.40;99.90;;;;;;5034058;28;20543;-77
2024/02/20 04:42:46;;;;;;;272.65;249.13;;;10.40;99.90;;;;;;5025516;28;20049;-77
2024/02/20 04:45:12;;;;;;;258.73;233.10;;;10.30;99.90;;;;;;5026281;28;20366;-77
2024/02/20 04:47:38;;;;;;;326.98;298.58;;;10.20;99.90;;;;;;5033711;28;20108;-77
2024/02/20 04:50:05;;;;;;;319.33;292.58;;;10.10;99.90;;;;;;5034185;28;20042;-77
2024/02/20 04:52:31;;;;;;;322.95;292.80;;;10.10;99.90;;;;;;5030790;28;20045;-77
2024/02/20 04:54:57;;;;;;;273.15;248.75;;;10.00;99.90;;;;;;5034328;28;20033;-77
2024/02/20 04:57:23;;;;;;;247.05;220.60;;;10.00;99.90;;;;;;5033603;28;20565;-77
2024/02/20 04:59:50;;;;;;;216.63;191.60;;;9.90;99.90;;;;;;5034191;28;20013;-77
2024/02/20 05:02:16;;;;;;;192.25;172.02;;;9.90;99.90;;;;;;5032887;28;20045;-77
2024/02/20 05:04:43;;;;;;;254.00;229.65;;;9.90;99.90;;;;;;5034016;28;20112;-77
2024/02/20 05:07:09;;;;;;;263.58;240.63;;;9.90;99.90;;;;;;5033126;28;20029;-77
2024/02/20 05:09:35;;;;;;;213.32;195.88;;;9.90;99.90;;;;;;5033280;28;20026;-77
2024/02/20 05:12:01;;;;;;;195.63;182.38;;;9.80;99.90;;;;;;5027049;28;20034;-78
2024/02/20 05:14:28;;;;;;;271.65;145.35;;;9.80;99.90;;;;;;5029506;28;20054;-77
2024/02/20 05:16:54;;;;;;;440.10;185.23;;;9.80;99.90;;;;;;5031837;28;20037;-77
2024/02/20 05:19:20;;;;;;;144.20;135.43;;;9.80;99.90;;;;;;5033661;28;20024;-77
2024/02/20 05:21:46;;;;;;;156.93;146.15;;;9.80;99.90;;;;;;5024202;28;20132;-77
2024/02/20 05:24:12;;;;;;;182.27;170.18;;;9.80;99.90;;;;;;5031018;28;20065;-77
2024/02/20 05:26:38;;;;;;;197.10;181.55;;;9.90;99.90;;;;;;5031846;28;20037;-77
2024/02/20 05:29:04;;;;;;;143.57;133.27;;;9.90;99.90;;;;;;5018210;28;20399;-77
2024/02/20 05:31:31;;;;;;;155.20;144.02;;;9.90;99.90;;;;;;5031816;28;20141;-76
2024/02/20 05:33:58;;;;;;;139.75;128.23;;;9.90;99.90;;;;;;5013707;28;20037;-77
2024/02/20 05:36:29;;;;;;;149.50;134.48;;;9.90;99.90;;;;;;5032148;28;20021;-76
2024/02/20 05:39:02;;;;;;;137.10;127.07;;;9.90;99.90;;;;;;5032655;28;20037;-77
2024/02/20 05:41:28;;;;;;;125.72;118.43;;;9.90;99.90;;;;;;5033028;28;20048;-77
2024/02/20 05:43:57;;;;;;;152.32;142.50;;;9.90;99.90;;;;;;4997090;28;20117;-77
2024/02/20 05:46:28;;;;;;;127.38;120.47;;;9.90;99.90;;;;;;5031524;28;20033;-77
2024/02/20 05:48:54;;;;;;;175.00;161.57;;;9.80;99.90;;;;;;5031874;28;20387;-76
2024/02/20 05:51:20;;;;;;;148.80;138.32;;;9.80;99.90;;;;;;5025673;28;20049;-77
2024/02/20 05:53:47;;;;;;;155.15;139.82;;;9.80;99.90;;;;;;5031700;28;20037;-77
2024/02/20 05:56:13;;;;;;;183.23;162.48;;;9.70;99.90;;;;;;5032903;28;20033;-77
2024/02/20 05:58:39;;;;;;;179.85;161.63;;;9.70;99.90;;;;;;5032935;28;20030;-77
2024/02/20 06:01:08;;;;;;;124.95;118.15;;;9.70;99.90;;;;;;5028103;28;20029;-77
2024/02/20 06:03:38;;;;;;;166.15;155.32;;;9.70;99.90;;;;;;5024973;28;20033;-76
2024/02/20 06:06:22;;;;;;;145.48;136.27;;;9.70;99.90;;;;;;5031031;28;20386;-77
2024/02/20 06:08:50;;;;;;;693.30;187.20;;;9.70;99.90;;;;;;5031596;28;20402;-77
2024/02/20 06:11:18;;;;;;;142.93;131.55;;;9.70;99.90;;;;;;5029588;28;20380;-77
2024/02/20 06:13:44;;;;;;;165.63;153.77;;;9.70;99.90;;;;;;5032963;28;20026;-77
2024/02/20 06:16:11;;;;;;;148.80;138.82;;;9.70;99.90;;;;;;5030843;28;20421;-75
2024/02/20 06:18:40;;;;;;;210.30;195.82;;;9.60;99.90;;;;;;5032158;28;20044;-77
2024/02/20 06:21:08;;;;;;;181.80;169.60;;;9.60;99.90;;;;;;5031166;28;20486;-77
2024/02/20 06:23:42;;;;;;;209.65;193.13;;;9.70;99.90;;;;;;5032029;28;20044;-77
2024/02/20 06:26:08;;;;;;;480.02;204.73;;;9.70;99.90;;;;;;5032159;28;20045;-77
2024/02/20 06:28:34;;;;;;;170.93;154.45;;;9.70;99.90;;;;;;5035100;28;20033;-77
2024/02/20 06:31:03;;;;;;;172.40;159.95;;;9.70;99.90;;;;;;5031659;28;20082;-77
2024/02/20 06:33:30;;;;;;;182.73;167.25;;;9.70;99.90;;;;;;5028566;28;20021;-77
2024/02/20 06:35:56;;;;;;;190.00;131.20;;;9.60;99.90;;;;;;5019277;28;20044;-77
2024/02/20 06:38:22;;;;;;;210.25;153.15;;;9.50;99.90;;;;;;5032523;28;20029;-76
2024/02/20 06:40:48;;;;;;;183.93;165.20;;;9.40;99.90;;;;;;5032461;28;20025;-77
2024/02/20 06:43:14;;;;;;;151.60;139.52;;;9.30;99.90;;;;;;5032200;28;20049;-77
2024/02/20 06:45:40;;;;;;;130.40;120.80;;;9.30;99.90;;;;;;5016479;28;20033;-76
2024/02/20 06:48:07;;;;;;;158.23;148.70;;;9.30;99.90;;;;;;5017613;28;20033;-77
2024/02/20 06:50:33;;;;;;;160.32;146.18;;;9.20;99.90;;;;;;5030314;28;20056;-77
2024/02/20 06:53:00;;;;;;;147.18;137.18;;;9.10;99.90;;;;;;5032249;28;20474;-76
2024/02/20 06:55:26;;;;;;;179.45;167.27;;;9.20;99.90;;;;;;5031532;28;20049;-76
2024/02/20 06:57:54;;;;;;;165.30;150.20;;;9.20;99.90;;;;;;5032063;28;20025;-77
2024/02/20 07:00:20;;;;;;;144.07;130.95;;;9.30;99.90;;;;;;5031303;28;20042;-76
2024/02/20 07:02:46;;;;;;;160.77;136.57;;;9.30;99.90;;;;;;5031524;28;20041;-76
2024/02/20 07:05:13;;;;;;;158.63;146.45;;;9.40;99.90;;;;;;5020188;28;20064;-76
2024/02/20 07:07:39;;;;;;;158.50;134.30;;;9.40;99.90;;;;;;5016911;28;20040;-77
2024/02/20 07:10:08;;;;;;;134.65;124.57;;;9.40;99.90;;;;;;5031479;28;20402;-74
2024/02/20 07:12:34;;;;;;;129.90;119.00;;;9.30;99.90;;;;;;5030534;28;20052;-75
2024/02/20 07:15:01;;;;;;;156.65;143.02;;;9.30;99.90;;;;;;5012703;28;20045;-75
2024/02/20 07:17:27;;;;;;;140.40;128.55;;;9.40;99.90;;;;;;5026181;28;20042;-75
2024/02/20 07:19:55;;;;;;;124.95;114.22;;;9.30;99.90;;;;;;5026934;28;20037;-75
2024/02/20 07:22:21;;;;;;;126.20;118.05;;;9.30;99.90;;;;;;5029650;28;20398;-75
2024/02/20 07:24:47;;;;;;;132.77;120.38;;;9.30;99.90;;;;;;5031569;28;20371;-76
2024/02/20 07:27:14;;;;;;;137.48;125.18;;;9.30;99.90;;;;;;5030616;28;20037;-75
2024/02/20 07:29:41;;;;;;;148.77;136.35;;;9.40;99.90;;;;;;5030271;28;20045;-75
2024/02/20 07:32:11;;;;;;;167.48;151.65;;;9.40;99.90;;;;;;5025807;28;20056;-75
2024/02/20 07:34:38;;;;;;;154.88;139.88;;;9.30;99.90;;;;;;5032271;28;20036;-75
2024/02/20 07:37:04;;;;;;;119.18;110.18;;;9.30;99.90;;;;;;5035788;28;20029;-75
2024/02/20 07:39:30;;;;;;;121.30;112.47;;;9.40;99.90;;;;;;5035387;28;20041;-74
2024/02/20 07:41:57;;;;;;;122.25;113.38;;;9.30;99.90;;;;;;5033709;28;20053;-76
2024/02/20 07:44:23;;;;;;;124.22;114.03;;;9.30;99.90;;;;;;5024142;28;20053;-76
2024/02/20 07:46:49;;;;;;;132.50;120.05;;;9.30;99.90;;;;;;5030046;28;20041;-77
2024/02/20 07:49:15;;;;;;;110.43;101.95;;;9.40;99.90;;;;;;5034830;28;20053;-76
2024/02/20 07:51:41;;;;;;;123.47;114.35;;;9.40;99.90;;;;;;5032799;28;20056;-75
2024/02/20 07:54:07;;;;;;;120.75;112.30;;;9.50;99.90;;;;;;5034789;28;20037;-75
2024/02/20 07:56:33;;;;;;;121.47;112.97;;;9.50;99.90;;;;;;5030800;28;20046;-76
2024/02/20 07:58:59;;;;;;;191.77;136.88;;;9.60;99.90;;;;;;5032103;28;20040;-75
2024/02/20 08:01:25;;;;;;;126.90;118.78;;;9.60;99.90;;;;;;5033030;28;20038;-75
2024/02/20 08:03:55;;;;;;;149.57;140.05;;;9.70;99.90;;;;;;5026681;28;20493;-75
2024/02/20 08:06:21;;;;;;;161.50;150.50;;;9.70;99.90;;;;;;5031035;28;20029;-77
2024/02/20 08:08:47;;;;;;;133.88;123.90;;;9.80;99.90;;;;;;5027844;28;20045;-77
2024/02/20 08:11:14;;;;;;;145.55;136.45;;;9.80;99.90;;;;;;5034446;28;21792;-77
2024/02/20 08:13:44;;;;;;;118.07;110.53;;;9.90;99.90;;;;;;5033949;28;20110;-72
2024/02/20 08:16:11;;;;;;;145.57;136.23;;;9.90;99.90;;;;;;5029194;28;20046;-75
2024/02/20 08:18:40;;;;;;;131.65;122.50;;;10.10;99.90;;;;;;5030193;28;20288;-77
2024/02/20 08:21:12;;;;;;;137.30;128.73;;;10.10;99.90;;;;;;5031558;28;20046;-77
2024/02/20 08:23:38;;;;;;;172.15;161.50;;;10.20;99.90;;;;;;5022770;28;20573;-77
2024/02/20 08:26:05;;;;;;;142.35;133.43;;;10.10;99.90;;;;;;5033345;28;20042;-77
2024/02/20 08:28:31;;;;;;;159.40;149.48;;;10.10;99.90;;;;;;5034025;28;20060;-77
2024/02/20 08:30:59;;;;;;;156.50;146.82;;;10.20;99.90;;;;;;5032626;28;20490;-77
2024/02/20 08:33:25;;;;;;;181.63;169.57;;;10.30;99.90;;;;;;5033670;28;20049;-77
2024/02/20 08:35:54;;;;;;;198.02;185.13;;;10.30;99.90;;;;;;5029716;28;20044;-77
2024/02/20 08:38:20;;;;;;;189.75;175.95;;;10.20;99.90;;;;;;5030382;28;20045;-77
2024/02/20 08:40:46;;;;;;;228.25;212.02;;;10.20;99.90;;;;;;5030750;28;20517;-77
2024/02/20 08:43:12;;;;;;;189.30;174.23;;;10.20;99.90;;;;;;5024541;28;20050;-78
2024/02/20 08:45:39;;;;;;;192.60;178.73;;;10.20;99.90;;;;;;5027195;28;20421;-77
2024/02/20 08:48:05;;;;;;;242.98;227.27;;;10.20;99.90;;;;;;5033247;28;20049;-77
2024/02/20 08:50:31;;;;;;;205.55;193.15;;;10.20;99.90;;;;;;5032822;28;20045;-77
2024/02/20 08:53:01;;;;;;;207.77;195.07;;;10.20;99.90;;;;;;5026496;28;20049;-77
2024/02/20 08:55:27;;;;;;;190.90;179.77;;;10.30;99.90;;;;;;5031298;28;20038;-76
2024/02/20 08:57:53;;;;;;;158.45;148.82;;;10.40;99.90;;;;;;5031841;28;20268;-77
2024/02/20 09:00:22;;;;;;;247.55;232.13;;;10.60;99.90;;;;;;5025754;28;20034;-77
2024/02/20 09:02:48;;;;;;;175.80;164.95;;;10.40;99.90;;;;;;5033122;28;20455;-77
2024/02/20 09:05:14;;;;;;;190.43;178.00;;;10.40;99.90;;;;;;5032480;28;20029;-78
2024/02/20 09:07:41;;;;;;;164.55;154.27;;;10.20;99.90;;;;;;5025822;28;20034;-78
2024/02/20 09:10:08;;;;;;;192.35;180.55;;;10.20;99.90;;;;;;5049059;28;20022;-78
2024/02/20 09:12:34;;;;;;;208.75;195.85;;;10.30;99.90;;;;;;5032783;28;20057;-80
2024/02/20 09:15:01;;;;;;;176.02;165.02;;;10.40;99.90;;;;;;5033671;28;20512;-79
2024/02/20 09:17:28;;;;;;;202.38;189.75;;;10.60;99.90;;;;;;5031718;28;20041;-79
2024/02/20 09:19:55;;;;;;;238.98;224.82;;;10.80;99.90;;;;;;5031219;28;20060;-79
2024/02/20 09:22:21;;;;;;;225.30;211.50;;;10.90;99.90;;;;;;5032810;28;20489;-75
2024/02/20 09:24:47;;;;;;;197.15;184.82;;;11.00;99.90;;;;;;5033251;28;20026;-74
2024/02/20 09:27:13;;;;;;;227.55;213.48;;;11.10;99.90;;;;;;5032003;28;20022;-74
2024/02/20 09:29:39;;;;;;;160.75;151.05;;;11.30;99.90;;;;;;5032840;28;20052;-74
2024/02/20 09:32:05;;;;;;;214.27;197.57;;;11.30;99.90;;;;;;5032743;28;20041;-75
2024/02/20 09:34:31;;;;;;;257.67;242.32;;;11.40;99.90;;;;;;5033825;28;20052;-75
2024/02/20 09:36:57;;;;;;;223.05;209.77;;;11.50;99.90;;;;;;5031894;28;20038;-74
2024/02/20 09:39:25;;;;;;;318.92;299.70;;;11.60;99.90;;;;;;5032832;28;20021;-74
2024/02/20 09:41:51;;;;;;;1999.90;999.90;;;11.60;99.90;;;;;;5032615;28;20037;-78
2024/02/20 09:44:18;;;;;;;443.85;415.98;;;11.70;99.90;;;;;;5035746;28;20037;-77
2024/02/20 09:46:50;;;;;;;1999.90;999.90;;;11.80;99.90;;;;;;5030322;28;20046;-78
2024/02/20 09:49:16;;;;;;;1999.90;999.90;;;12.00;99.90;;;;;;5015804;28;20025;-78
2024/02/20 09:51:42;;;;;;;1999.90;999.90;;;12.30;99.90;;;;;;5064924;28;20409;-78
2024/02/20 09:54:08;;;;;;;776.70;510.42;;;12.30;99.90;;;;;;5032420;28;20044;-78
2024/02/20 09:56:36;;;;;;;1999.90;999.90;;;12.40;99.90;;;;;;5030326;28;20036;-77
2024/02/20 09:59:04;;;;;;;1999.90;999.90;;;12.50;99.90;;;;;;5031226;28;20052;-77
2024/02/20 10:01:31;;;;;;;1999.90;999.90;;;12.50;99.90;;;;;;5032565;28;20501;-78
2024/02/20 10:03:59;;;;;;;1999.90;999.90;;;12.70;99.90;;;;;;5033362;28;20026;-78
2024/02/20 10:06:25;;;;;;;1999.90;999.90;;;12.70;99.90;;;;;;5030440;28;20414;-78
2024/02/20 10:08:52;;;;;;;1999.90;999.90;;;12.80;99.90;;;;;;5016151;28;20036;-77
2024/02/20 10:11:18;;;;;;;1999.90;999.90;;;13.00;99.90;;;;;;5032446;28;20029;-75
2024/02/20 10:13:45;;;;;;;1999.90;999.90;;;13.00;99.90;;;;;;5031939;28;20040;-78
2024/02/20 10:16:15;;;;;;;1999.90;999.90;;;13.00;99.90;;;;;;5029812;28;20029;-76
2024/02/20 10:18:42;;;;;;;1999.90;999.90;;;12.90;99.90;;;;;;5031509;28;20049;-77
2024/02/20 10:21:09;;;;;;;1999.90;999.90;;;12.90;99.90;;;;;;5061277;28;20025;-77
2024/02/20 10:23:35;;;;;;;1999.90;999.90;;;12.80;99.90;;;;;;5031206;28;20046;-77
2024/02/20 10:26:01;;;;;;;1999.90;999.90;;;12.70;99.90;;;;;;5032031;28;20040;-78
2024/02/20 10:28:28;;;;;;;1999.90;999.90;;;12.70;99.90;;;;;;5030343;28;20064;-77
2024/02/20 10:30:55;;;;;;;1999.90;999.90;;;12.80;99.90;;;;;;5025734;28;20037;-78
2024/02/20 10:33:22;;;;;;;1999.90;999.90;;;12.90;99.90;;;;;;5028635;28;20494;-78
2024/02/20 10:35:48;;;;;;;1999.90;999.90;;;12.90;99.90;;;;;;5026797;28;20025;-78
2024/02/20 10:38:18;;;;;;;1999.90;999.90;;;12.90;99.90;;;;;;5027895;28;20029;-82
2024/02/20 10:40:44;;;;;;;1999.90;999.90;;;12.90;99.90;;;;;;5029734;28;20032;-78
2024/02/20 10:43:12;;;;;;;1999.90;999.90;;;12.90;99.90;;;;;;5027821;28;20049;-78
2024/02/20 10:45:39;;;;;;;1999.90;999.90;;;12.90;99.90;;;;;;5031041;28;20041;-77
2024/02/20 10:48:06;;;;;;;1999.90;999.90;;;12.90;99.90;;;;;;5026732;28;20048;-78
2024/02/20 10:50:33;;;;;;;1999.90;999.90;;;12.90;99.90;;;;;;5011166;28;20083;-78
2024/02/20 10:53:00;;;;;;;1999.90;999.90;;;12.90;99.90;;;;;;5012059;28;20505;-78
2024/02/20 10:55:26;;;;;;;1999.90;999.90;;;12.90;99.90;;;;;;5028568;28;20505;-79
2024/02/20 10:57:52;;;;;;;1999.90;999.90;;;12.90;99.90;;;;;;5031665;28;20036;-78
2024/02/20 11:00:18;;;;;;;1999.90;999.90;;;13.00;99.90;;;;;;5027164;28;20026;-78
2024/02/20 11:02:48;;;;;;;1999.90;999.90;;;13.00;99.90;;;;;;5021598;28;20029;-79
2024/02/20 11:05:14;;;;;;;1999.90;999.90;;;13.00;99.90;;;;;;5028734;28;20133;-79
2024/02/20 11:07:41;;;;;;;1999.90;999.90;;;13.10;99.90;;;;;;5020587;28;20486;-78
2024/02/20 11:10:15;;;;;;;1999.90;999.90;;;13.00;99.90;;;;;;5025518;28;20034;-79
2024/02/20 11:12:41;;;;;;;1999.90;999.90;;;13.00;99.90;;;;;;5027184;28;20068;-77
2024/02/20 11:15:12;;;;;;;1999.90;999.90;;;13.00;99.90;;;;;;5030029;28;20028;-79
2024/02/20 11:17:38;;;;;;;1999.90;999.90;;;13.30;99.90;;;;;;5028708;28;20474;-79
2024/02/20 11:20:16;;;;;;;1999.90;999.90;;;13.50;99.90;;;;;;5028217;28;20033;-79
2024/02/20 11:22:43;;;;;;;1999.90;999.90;;;13.70;99.90;;;;;;5030507;28;20030;-79
2024/02/20 11:25:14;;;;;;;1999.90;999.90;;;13.90;99.90;;;;;;5030675;28;20038;-79
2024/02/20 11:27:41;;;;;;;1999.90;999.90;;;14.10;99.90;;;;;;5030612;28;20033;-79
2024/02/20 11:30:29;;;;;;;1999.90;999.90;;;14.10;99.90;;;;;;5029585;28;20390;-79
2024/02/20 11:32:56;;;;;;;1999.90;999.90;;;14.30;99.90;;;;;;5029242;28;20417;-79
2024/02/20 11:35:25;;;;;;;1999.90;999.90;;;14.40;99.90;;;;;;5026721;28;20034;-79
2024/02/20 11:37:53;;;;;;;1999.90;999.90;;;14.20;99.90;;;;;;5031499;28;20049;-77
2024/02/20 11:40:27;;;;;;;1999.90;999.90;;;14.20;99.90;;;;;;5031105;28;20672;-79
2024/02/20 11:42:55;;;;;;;1999.90;999.90;;;14.30;99.90;;;;;;5031385;28;20057;-80
2024/02/20 11:45:24;;;;;;;1999.90;999.90;;;14.40;99.90;;;;;;5027773;28;20390;-80
2024/02/20 11:48:19;;;;;;;1999.90;999.90;;;14.30;99.90;;;;;;5031028;28;20045;-80
2024/02/20 11:50:46;;;;;;;1999.90;999.90;;;14.40;99.90;;;;;;5027498;28;20479;-79
2024/02/20 11:53:14;;;;;;;1999.90;999.90;;;14.50;99.90;;;;;;5029679;28;20065;-79
2024/02/20 11:55:41;;;;;;;1999.90;999.90;;;14.50;99.90;;;;;;5028751;28;20025;-80
2024/02/20 11:58:07;;;;;;;1999.90;999.90;;;14.50;99.90;;;;;;5029976;28;20028;-80
2024/02/20 12:00:37;;;;;;;1999.90;999.90;;;14.40;99.90;;;;;;5026010;28;20044;-80
2024/02/20 12:03:04;;;;;;;1999.90;999.90;;;14.40;99.90;;;;;;5013009;28;20030;-81
2024/02/20 12:05:40;;;;;;;1999.90;999.90;;;14.50;99.90;;;;;;5014702;28;20774;-80
2024/02/20 12:08:18;;;;;;;1999.90;999.90;;;14.50;99.90;;;;;;5009593;28;20388;-82